Date,TemperatureHighF,TemperatureAvgF,TemperatureLowF,DewpointHighF,DewpointAvgF,DewpointLowF,HumidityHigh,HumidityAvg,HumidityLow,PressureMaxIn,PressureMinIn,WindSpeedMaxMPH,WindSpeedAvgMPH,GustSpeedMaxMPH,PrecipitationSumIn
2013-2-1,59.3,56.0,52.7,52.9,51.1,49.1,91,84,73,30.20,29.83,16,6,16,0.00
2013-2-2,62.1,57.1,47.8,53.4,50.4,40.0,91,79,59,29.83,29.33,44,21,44,0.17
2013-2-3,54.4,49.1,43.2,46.5,40.6,32.1,84,73,59,29.95,29.45,30,15,30,0.11
2013-2-4,57.8,47.6,41.8,34.8,31.3,26.7,70,54,31,30.15,29.95,18,7,18,0.00
2013-2-5,54.5,49.4,40.9,50.8,39.1,29.5,91,68,52,30.14,29.81,22,8,22,0.09
2013-2-6,56.4,53.0,45.9,50.4,45.0,35.6,86,74,60,29.82,29.52,27,13,27,0.06
2013-2-7,48.3,45.2,42.0,42.7,39.0,35.2,90,79,63,29.57,29.50,26,6,26,0.37
2013-2-8,48.6,43.5,40.7,39.9,35.2,31.0,90,73,57,29.75,29.54,22,8,22,0.02
2013-2-9,47.5,41.3,38.4,33.5,30.4,27.8,73,65,54,29.88,29.72,19,7,19,0.00
2013-2-10,49.7,41.6,37.8,30.0,26.5,18.5,69,55,32,29.99,29.86,17,6,17,0.00
2013-2-11,55.6,47.0,38.2,46.2,36.2,25.3,83,66,53,29.99,29.66,33,11,33,0.02
2013-2-12,53.1,46.4,41.6,47.4,42.3,38.8,92,86,70,29.68,29.59,38,10,38,0.69
2013-2-13,54.1,46.8,42.4,44.5,40.8,36.8,91,80,54,29.83,29.65,20,5,20,0.30
2013-2-14,54.6,48.1,42.3,40.3,38.0,36.3,87,69,53,29.98,29.82,24,8,24,0.00
2013-2-15,54.1,47.7,43.4,44.5,39.9,35.3,89,75,62,30.01,29.97,23,5,23,0.15
2013-2-16,55.2,48.4,43.8,43.6,39.9,35.1,91,73,57,30.06,29.96,22,7,22,0.07
2013-2-17,54.8,48.7,43.8,43.1,38.1,34.1,82,67,48,30.07,29.98,16,6,16,0.00
2013-2-18,54.6,47.9,42.7,41.3,38.9,35.9,84,71,51,30.00,29.93,20,4,20,0.01
2013-2-19,54.2,46.5,41.1,39.2,35.0,31.0,84,65,44,30.00,29.93,16,7,16,0.00
2013-2-20,54.0,47.6,42.1,40.0,37.0,34.8,78,67,55,30.01,29.92,15,5,15,0.00
2013-2-21,50.1,46.2,41.3,43.0,38.9,35.0,81,75,69,29.92,29.70,9,4,9,0.01
2013-2-22,54.7,48.7,42.0,51.5,44.3,36.3,93,85,73,29.70,29.51,34,6,35,0.53
2013-2-23,61.9,54.7,47.2,51.4,47.3,42.9,92,77,54,29.68,29.51,55,14,55,0.19
2013-2-24,55.8,48.9,42.8,49.2,40.2,31.9,86,73,51,29.98,29.67,26,11,26,0.06
2013-2-25,50.3,45.7,41.7,42.9,38.7,34.9,89,77,68,30.05,29.97,20,4,20,0.15
2013-2-26,53.0,47.7,44.3,41.5,39.0,35.9,80,72,56,30.12,30.00,16,4,16,0.01
2013-2-27,54.7,48.9,43.6,42.8,39.1,36.6,82,69,54,30.20,30.10,16,5,16,0.00
2013-2-28,56.4,50.1,44.1,44.0,40.1,37.0,76,69,56,30.24,30.14,13,6,13,0.00